sensor_id;sensor_type;location;lat;lon;timestamp;P1;durP1;ratioP1;P2;durP2;ratioP2
15082;SDS011;7640;53.116;6.878;2023-05-20T00:00:06;13.50;;;7.53;;
15082;SDS011;7640;53.116;6.878;2023-05-20T00:02:38;12.63;;;7.60;;
15082;SDS011;7640;53.116;6.878;2023-05-20T00:05:07;16.30;;;7.30;;
15082;SDS011;7640;53.116;6.878;2023-05-20T00:07:35;11.93;;;7.47;;
15082;SDS011;7640;53.116;6.878;2023-05-20T00:10:04;15.00;;;7.40;;
15082;SDS011;7640;53.116;6.878;2023-05-20T00:12:36;10.47;;;7.30;;
15082;SDS011;7640;53.116;6.878;2023-05-20T00:15:05;13.93;;;8.03;;
15082;SDS011;7640;53.116;6.878;2023-05-20T00:17:37;10.20;;;7.37;;
15082;SDS011;7640;53.116;6.878;2023-05-20T00:20:06;14.47;;;8.57;;
15082;SDS011;7640;53.116;6.878;2023-05-20T00:22:35;13.33;;;7.77;;
15082;SDS011;7640;53.116;6.878;2023-05-20T00:25:04;11.17;;;7.17;;
15082;SDS011;7640;53.116;6.878;2023-05-20T00:27:34;11.13;;;6.60;;
15082;SDS011;7640;53.116;6.878;2023-05-20T00:30:03;13.17;;;7.43;;
15082;SDS011;7640;53.116;6.878;2023-05-20T00:32:33;13.83;;;7.40;;
15082;SDS011;7640;53.116;6.878;2023-05-20T00:35:02;11.53;;;6.53;;
15082;SDS011;7640;53.116;6.878;2023-05-20T00:37:32;10.13;;;7.00;;
15082;SDS011;7640;53.116;6.878;2023-05-20T00:40:00;13.00;;;7.17;;
15082;SDS011;7640;53.116;6.878;2023-05-20T00:42:31;13.63;;;7.33;;
15082;SDS011;7640;53.116;6.878;2023-05-20T00:45:00;9.43;;;6.77;;
15082;SDS011;7640;53.116;6.878;2023-05-20T00:47:32;11.00;;;7.07;;
15082;SDS011;7640;53.116;6.878;2023-05-20T00:50:03;10.53;;;7.17;;
15082;SDS011;7640;53.116;6.878;2023-05-20T00:52:32;10.57;;;6.93;;
15082;SDS011;7640;53.116;6.878;2023-05-20T00:55:02;9.90;;;6.87;;
15082;SDS011;7640;53.116;6.878;2023-05-20T00:57:32;11.53;;;6.80;;
15082;SDS011;7640;53.116;6.878;2023-05-20T01:00:01;11.80;;;7.20;;
15082;SDS011;7640;53.116;6.878;2023-05-20T01:02:30;9.93;;;6.87;;
15082;SDS011;7640;53.116;6.878;2023-05-20T01:04:59;8.83;;;6.63;;
15082;SDS011;7640;53.116;6.878;2023-05-20T01:07:28;10.07;;;6.70;;
15082;SDS011;7640;53.116;6.878;2023-05-20T01:09:56;10.00;;;6.70;;
15082;SDS011;7640;53.116;6.878;2023-05-20T01:12:25;8.83;;;6.23;;
15082;SDS011;7640;53.116;6.878;2023-05-20T01:14:58;10.73;;;6.77;;
15082;SDS011;7640;53.116;6.878;2023-05-20T01:17:34;9.37;;;7.10;;
15082;SDS011;7640;53.116;6.878;2023-05-20T01:20:07;9.40;;;6.23;;
15082;SDS011;7640;53.116;6.878;2023-05-20T01:22:37;11.00;;;6.30;;
15082;SDS011;7640;53.116;6.878;2023-05-20T01:25:13;14.20;;;6.80;;
15082;SDS011;7640;53.116;6.878;2023-05-20T01:27:42;11.17;;;6.77;;
15082;SDS011;7640;53.116;6.878;2023-05-20T01:30:10;8.33;;;6.03;;
15082;SDS011;7640;53.116;6.878;2023-05-20T01:32:42;8.23;;;6.13;;
15082;SDS011;7640;53.116;6.878;2023-05-20T01:35:15;8.57;;;6.47;;
15082;SDS011;7640;53.116;6.878;2023-05-20T01:37:49;10.67;;;6.73;;
15082;SDS011;7640;53.116;6.878;2023-05-20T01:40:19;10.33;;;6.50;;
15082;SDS011;7640;53.116;6.878;2023-05-20T01:42:49;11.30;;;6.43;;
15082;SDS011;7640;53.116;6.878;2023-05-20T01:45:19;6.50;;;5.40;;
15082;SDS011;7640;53.116;6.878;2023-05-20T01:47:47;9.00;;;6.03;;
15082;SDS011;7640;53.116;6.878;2023-05-20T01:50:16;10.63;;;5.67;;
15082;SDS011;7640;53.116;6.878;2023-05-20T01:52:45;9.77;;;6.20;;
15082;SDS011;7640;53.116;6.878;2023-05-20T01:55:14;10.20;;;5.73;;
15082;SDS011;7640;53.116;6.878;2023-05-20T01:57:43;8.10;;;5.60;;
15082;SDS011;7640;53.116;6.878;2023-05-20T02:00:12;8.23;;;5.97;;
15082;SDS011;7640;53.116;6.878;2023-05-20T02:02:41;8.93;;;5.93;;
15082;SDS011;7640;53.116;6.878;2023-05-20T02:05:10;8.33;;;6.23;;
15082;SDS011;7640;53.116;6.878;2023-05-20T02:07:38;8.97;;;6.90;;
15082;SDS011;7640;53.116;6.878;2023-05-20T02:10:07;9.53;;;6.13;;
15082;SDS011;7640;53.116;6.878;2023-05-20T02:12:38;6.83;;;5.53;;
15082;SDS011;7640;53.116;6.878;2023-05-20T02:15:06;12.17;;;5.57;;
15082;SDS011;7640;53.116;6.878;2023-05-20T02:17:36;9.70;;;5.90;;
15082;SDS011;7640;53.116;6.878;2023-05-20T02:20:05;7.13;;;5.70;;
15082;SDS011;7640;53.116;6.878;2023-05-20T02:22:35;6.67;;;5.63;;
15082;SDS011;7640;53.116;6.878;2023-05-20T02:25:04;11.40;;;5.60;;
15082;SDS011;7640;53.116;6.878;2023-05-20T02:27:34;8.77;;;5.77;;
15082;SDS011;7640;53.116;6.878;2023-05-20T02:30:05;6.97;;;5.60;;
15082;SDS011;7640;53.116;6.878;2023-05-20T02:32:35;7.87;;;5.67;;
15082;SDS011;7640;53.116;6.878;2023-05-20T02:35:04;7.77;;;5.93;;
15082;SDS011;7640;53.116;6.878;2023-05-20T02:37:33;8.07;;;5.23;;
15082;SDS011;7640;53.116;6.878;2023-05-20T02:40:04;9.23;;;5.57;;
15082;SDS011;7640;53.116;6.878;2023-05-20T02:42:36;7.47;;;5.67;;
15082;SDS011;7640;53.116;6.878;2023-05-20T02:45:06;8.73;;;5.67;;
15082;SDS011;7640;53.116;6.878;2023-05-20T02:47:36;7.83;;;5.03;;
15082;SDS011;7640;53.116;6.878;2023-05-20T02:50:04;9.80;;;5.80;;
15082;SDS011;7640;53.116;6.878;2023-05-20T02:52:35;8.43;;;5.27;;
15082;SDS011;7640;53.116;6.878;2023-05-20T02:55:05;7.80;;;5.40;;
15082;SDS011;7640;53.116;6.878;2023-05-20T02:57:34;9.60;;;5.53;;
15082;SDS011;7640;53.116;6.878;2023-05-20T03:00:06;9.27;;;5.90;;
15082;SDS011;7640;53.116;6.878;2023-05-20T03:02:37;7.73;;;5.30;;
15082;SDS011;7640;53.116;6.878;2023-05-20T03:05:06;7.13;;;5.07;;
15082;SDS011;7640;53.116;6.878;2023-05-20T03:07:36;9.80;;;5.20;;
15082;SDS011;7640;53.116;6.878;2023-05-20T03:10:05;7.07;;;4.93;;
15082;SDS011;7640;53.116;6.878;2023-05-20T03:12:35;9.23;;;5.03;;
15082;SDS011;7640;53.116;6.878;2023-05-20T03:15:06;8.53;;;4.50;;
15082;SDS011;7640;53.116;6.878;2023-05-20T03:17:36;7.33;;;4.40;;
15082;SDS011;7640;53.116;6.878;2023-05-20T03:20:05;10.70;;;4.97;;
15082;SDS011;7640;53.116;6.878;2023-05-20T03:22:38;6.43;;;4.40;;
15082;SDS011;7640;53.116;6.878;2023-05-20T03:25:07;5.27;;;4.50;;
15082;SDS011;7640;53.116;6.878;2023-05-20T03:27:36;6.40;;;4.90;;
15082;SDS011;7640;53.116;6.878;2023-05-20T03:30:06;6.93;;;4.63;;
15082;SDS011;7640;53.116;6.878;2023-05-20T03:32:36;6.73;;;4.60;;
15082;SDS011;7640;53.116;6.878;2023-05-20T03:35:04;5.97;;;4.57;;
15082;SDS011;7640;53.116;6.878;2023-05-20T03:37:35;5.23;;;4.50;;
15082;SDS011;7640;53.116;6.878;2023-05-20T03:40:04;9.77;;;5.00;;
15082;SDS011;7640;53.116;6.878;2023-05-20T03:42:36;5.73;;;3.97;;
15082;SDS011;7640;53.116;6.878;2023-05-20T03:45:07;4.83;;;4.27;;
15082;SDS011;7640;53.116;6.878;2023-05-20T03:47:37;4.93;;;4.00;;
15082;SDS011;7640;53.116;6.878;2023-05-20T03:50:06;5.57;;;4.17;;
15082;SDS011;7640;53.116;6.878;2023-05-20T03:52:35;6.40;;;3.93;;
15082;SDS011;7640;53.116;6.878;2023-05-20T03:55:04;4.83;;;4.00;;
15082;SDS011;7640;53.116;6.878;2023-05-20T03:57:33;7.27;;;4.47;;
15082;SDS011;7640;53.116;6.878;2023-05-20T04:00:03;5.73;;;3.90;;
15082;SDS011;7640;53.116;6.878;2023-05-20T04:02:37;4.73;;;3.63;;
15082;SDS011;7640;53.116;6.878;2023-05-20T04:05:06;4.73;;;3.83;;
15082;SDS011;7640;53.116;6.878;2023-05-20T04:07:35;7.43;;;3.37;;
15082;SDS011;7640;53.116;6.878;2023-05-20T04:10:05;5.23;;;3.60;;
15082;SDS011;7640;53.116;6.878;2023-05-20T04:12:35;6.43;;;3.83;;
15082;SDS011;7640;53.116;6.878;2023-05-20T04:15:04;5.40;;;3.90;;
15082;SDS011;7640;53.116;6.878;2023-05-20T04:17:34;9.43;;;4.00;;
15082;SDS011;7640;53.116;6.878;2023-05-20T04:20:05;7.43;;;3.40;;
15082;SDS011;7640;53.116;6.878;2023-05-20T04:22:36;4.53;;;3.17;;
15082;SDS011;7640;53.116;6.878;2023-05-20T04:25:06;4.60;;;3.63;;
15082;SDS011;7640;53.116;6.878;2023-05-20T04:27:35;4.10;;;3.17;;
15082;SDS011;7640;53.116;6.878;2023-05-20T04:30:05;4.43;;;3.33;;
15082;SDS011;7640;53.116;6.878;2023-05-20T04:32:35;11.60;;;3.47;;
15082;SDS011;7640;53.116;6.878;2023-05-20T04:35:06;3.83;;;2.80;;
15082;SDS011;7640;53.116;6.878;2023-05-20T04:37:37;5.13;;;3.03;;
15082;SDS011;7640;53.116;6.878;2023-05-20T04:40:08;11.87;;;3.00;;
15082;SDS011;7640;53.116;6.878;2023-05-20T04:42:38;3.37;;;2.67;;
15082;SDS011;7640;53.116;6.878;2023-05-20T04:45:07;5.27;;;2.90;;
15082;SDS011;7640;53.116;6.878;2023-05-20T04:47:36;4.67;;;2.80;;
15082;SDS011;7640;53.116;6.878;2023-05-20T04:50:08;3.77;;;2.67;;
15082;SDS011;7640;53.116;6.878;2023-05-20T04:52:37;4.80;;;2.70;;
15082;SDS011;7640;53.116;6.878;2023-05-20T04:55:07;3.07;;;2.33;;
15082;SDS011;7640;53.116;6.878;2023-05-20T04:57:37;2.93;;;2.57;;
15082;SDS011;7640;53.116;6.878;2023-05-20T05:00:08;3.20;;;2.70;;
15082;SDS011;7640;53.116;6.878;2023-05-20T05:02:38;3.23;;;2.53;;
15082;SDS011;7640;53.116;6.878;2023-05-20T05:05:08;4.33;;;2.57;;
15082;SDS011;7640;53.116;6.878;2023-05-20T05:07:37;2.80;;;2.10;;
15082;SDS011;7640;53.116;6.878;2023-05-20T05:10:06;3.50;;;2.37;;
15082;SDS011;7640;53.116;6.878;2023-05-20T05:12:35;2.20;;;2.00;;
15082;SDS011;7640;53.116;6.878;2023-05-20T05:15:04;5.33;;;2.43;;
15082;SDS011;7640;53.116;6.878;2023-05-20T05:17:34;2.40;;;1.90;;
15082;SDS011;7640;53.116;6.878;2023-05-20T05:20:02;4.27;;;2.50;;
15082;SDS011;7640;53.116;6.878;2023-05-20T05:22:33;4.13;;;2.10;;
15082;SDS011;7640;53.116;6.878;2023-05-20T05:25:02;2.43;;;1.90;;
15082;SDS011;7640;53.116;6.878;2023-05-20T05:27:31;3.60;;;2.00;;
15082;SDS011;7640;53.116;6.878;2023-05-20T05:30:00;2.33;;;1.90;;
15082;SDS011;7640;53.116;6.878;2023-05-20T05:32:28;5.00;;;2.30;;
15082;SDS011;7640;53.116;6.878;2023-05-20T05:34:57;3.47;;;2.37;;
15082;SDS011;7640;53.116;6.878;2023-05-20T05:37:26;3.63;;;2.30;;
15082;SDS011;7640;53.116;6.878;2023-05-20T05:39:55;4.73;;;2.10;;
15082;SDS011;7640;53.116;6.878;2023-05-20T05:42:24;4.47;;;2.03;;
15082;SDS011;7640;53.116;6.878;2023-05-20T05:44:52;2.37;;;1.70;;
15082;SDS011;7640;53.116;6.878;2023-05-20T05:47:23;3.03;;;1.90;;
15082;SDS011;7640;53.116;6.878;2023-05-20T05:49:57;2.53;;;1.90;;
15082;SDS011;7640;53.116;6.878;2023-05-20T05:52:25;3.60;;;2.40;;
15082;SDS011;7640;53.116;6.878;2023-05-20T05:54:55;2.70;;;2.00;;
15082;SDS011;7640;53.116;6.878;2023-05-20T05:57:24;2.90;;;1.77;;
15082;SDS011;7640;53.116;6.878;2023-05-20T05:59:52;4.03;;;1.80;;
15082;SDS011;7640;53.116;6.878;2023-05-20T06:02:21;2.47;;;1.80;;
15082;SDS011;7640;53.116;6.878;2023-05-20T06:04:49;3.13;;;1.77;;
15082;SDS011;7640;53.116;6.878;2023-05-20T06:07:18;2.23;;;1.80;;
15082;SDS011;7640;53.116;6.878;2023-05-20T06:09:46;2.80;;;2.10;;
15082;SDS011;7640;53.116;6.878;2023-05-20T06:12:16;4.10;;;2.10;;
15082;SDS011;7640;53.116;6.878;2023-05-20T06:14:44;2.53;;;2.07;;
15082;SDS011;7640;53.116;6.878;2023-05-20T06:17:13;2.73;;;1.83;;
15082;SDS011;7640;53.116;6.878;2023-05-20T06:19:42;4.70;;;1.90;;
15082;SDS011;7640;53.116;6.878;2023-05-20T06:22:10;3.07;;;2.00;;
15082;SDS011;7640;53.116;6.878;2023-05-20T06:24:39;2.93;;;2.10;;
15082;SDS011;7640;53.116;6.878;2023-05-20T06:27:07;2.83;;;2.10;;
15082;SDS011;7640;53.116;6.878;2023-05-20T06:29:37;3.40;;;2.07;;
15082;SDS011;7640;53.116;6.878;2023-05-20T06:32:08;3.47;;;2.30;;
15082;SDS011;7640;53.116;6.878;2023-05-20T06:34:37;3.67;;;1.83;;
15082;SDS011;7640;53.116;6.878;2023-05-20T06:37:06;3.10;;;1.90;;
15082;SDS011;7640;53.116;6.878;2023-05-20T06:39:34;3.20;;;2.10;;
15082;SDS011;7640;53.116;6.878;2023-05-20T06:42:03;2.77;;;2.00;;
15082;SDS011;7640;53.116;6.878;2023-05-20T06:44:32;2.90;;;2.00;;
15082;SDS011;7640;53.116;6.878;2023-05-20T06:47:01;5.03;;;1.90;;
15082;SDS011;7640;53.116;6.878;2023-05-20T06:49:30;4.07;;;2.10;;
15082;SDS011;7640;53.116;6.878;2023-05-20T06:51:58;2.33;;;2.13;;
15082;SDS011;7640;53.116;6.878;2023-05-20T06:54:27;3.13;;;2.10;;
15082;SDS011;7640;53.116;6.878;2023-05-20T06:56:55;3.50;;;2.17;;
15082;SDS011;7640;53.116;6.878;2023-05-20T06:59:24;3.97;;;2.20;;
15082;SDS011;7640;53.116;6.878;2023-05-20T07:01:52;2.73;;;2.20;;
15082;SDS011;7640;53.116;6.878;2023-05-20T07:04:22;3.13;;;2.10;;
15082;SDS011;7640;53.116;6.878;2023-05-20T07:06:50;2.20;;;2.00;;
15082;SDS011;7640;53.116;6.878;2023-05-20T07:09:19;4.20;;;2.23;;
15082;SDS011;7640;53.116;6.878;2023-05-20T07:11:47;2.93;;;2.30;;
15082;SDS011;7640;53.116;6.878;2023-05-20T07:14:15;3.07;;;2.07;;
15082;SDS011;7640;53.116;6.878;2023-05-20T07:16:44;3.97;;;2.20;;
15082;SDS011;7640;53.116;6.878;2023-05-20T07:19:13;4.57;;;2.80;;
15082;SDS011;7640;53.116;6.878;2023-05-20T07:21:42;2.93;;;2.20;;
15082;SDS011;7640;53.116;6.878;2023-05-20T07:24:11;3.20;;;2.23;;
15082;SDS011;7640;53.116;6.878;2023-05-20T07:26:39;3.37;;;2.10;;
15082;SDS011;7640;53.116;6.878;2023-05-20T07:29:08;4.03;;;2.40;;
15082;SDS011;7640;53.116;6.878;2023-05-20T07:31:36;4.33;;;2.10;;
15082;SDS011;7640;53.116;6.878;2023-05-20T07:34:05;3.30;;;2.10;;
15082;SDS011;7640;53.116;6.878;2023-05-20T07:36:33;2.90;;;2.30;;
15082;SDS011;7640;53.116;6.878;2023-05-20T07:39:04;4.47;;;2.13;;
15082;SDS011;7640;53.116;6.878;2023-05-20T07:41:40;5.73;;;2.20;;
15082;SDS011;7640;53.116;6.878;2023-05-20T07:44:08;3.93;;;2.23;;
15082;SDS011;7640;53.116;6.878;2023-05-20T07:46:38;3.53;;;2.30;;
15082;SDS011;7640;53.116;6.878;2023-05-20T07:49:07;3.43;;;2.30;;
15082;SDS011;7640;53.116;6.878;2023-05-20T07:51:35;5.13;;;2.47;;
15082;SDS011;7640;53.116;6.878;2023-05-20T07:54:05;5.00;;;2.70;;
15082;SDS011;7640;53.116;6.878;2023-05-20T07:56:34;3.00;;;2.53;;
15082;SDS011;7640;53.116;6.878;2023-05-20T07:59:02;4.07;;;2.50;;
15082;SDS011;7640;53.116;6.878;2023-05-20T08:01:30;3.17;;;2.30;;
15082;SDS011;7640;53.116;6.878;2023-05-20T08:04:00;4.60;;;2.47;;
15082;SDS011;7640;53.116;6.878;2023-05-20T08:06:29;3.00;;;2.63;;
15082;SDS011;7640;53.116;6.878;2023-05-20T08:08:58;4.57;;;2.67;;
15082;SDS011;7640;53.116;6.878;2023-05-20T08:11:28;3.27;;;2.50;;
15082;SDS011;7640;53.116;6.878;2023-05-20T08:13:56;3.83;;;2.53;;
15082;SDS011;7640;53.116;6.878;2023-05-20T08:16:25;3.17;;;2.53;;
15082;SDS011;7640;53.116;6.878;2023-05-20T08:18:54;3.17;;;2.70;;
15082;SDS011;7640;53.116;6.878;2023-05-20T08:21:23;4.33;;;3.00;;
15082;SDS011;7640;53.116;6.878;2023-05-20T08:23:52;2.80;;;2.60;;
15082;SDS011;7640;53.116;6.878;2023-05-20T08:26:20;2.60;;;2.40;;
15082;SDS011;7640;53.116;6.878;2023-05-20T08:28:50;3.07;;;2.60;;
15082;SDS011;7640;53.116;6.878;2023-05-20T08:31:19;3.03;;;2.57;;
15082;SDS011;7640;53.116;6.878;2023-05-20T08:33:47;3.37;;;2.70;;
15082;SDS011;7640;53.116;6.878;2023-05-20T08:36:15;3.23;;;2.70;;
15082;SDS011;7640;53.116;6.878;2023-05-20T08:38:44;2.83;;;2.63;;
15082;SDS011;7640;53.116;6.878;2023-05-20T08:41:14;4.33;;;2.80;;
15082;SDS011;7640;53.116;6.878;2023-05-20T08:43:42;4.23;;;2.80;;
15082;SDS011;7640;53.116;6.878;2023-05-20T08:46:13;3.10;;;2.80;;
15082;SDS011;7640;53.116;6.878;2023-05-20T08:48:43;6.17;;;2.93;;
15082;SDS011;7640;53.116;6.878;2023-05-20T08:51:12;3.33;;;2.60;;
15082;SDS011;7640;53.116;6.878;2023-05-20T08:53:46;4.97;;;2.90;;
15082;SDS011;7640;53.116;6.878;2023-05-20T08:56:15;2.90;;;2.70;;
15082;SDS011;7640;53.116;6.878;2023-05-20T08:58:44;5.40;;;3.00;;
15082;SDS011;7640;53.116;6.878;2023-05-20T09:01:14;4.00;;;3.47;;
15082;SDS011;7640;53.116;6.878;2023-05-20T09:03:43;4.80;;;3.00;;
15082;SDS011;7640;53.116;6.878;2023-05-20T09:06:15;4.37;;;3.23;;
15082;SDS011;7640;53.116;6.878;2023-05-20T09:08:47;3.10;;;2.80;;
15082;SDS011;7640;53.116;6.878;2023-05-20T09:11:16;3.20;;;2.90;;
15082;SDS011;7640;53.116;6.878;2023-05-20T09:13:44;3.03;;;2.53;;
15082;SDS011;7640;53.116;6.878;2023-05-20T09:16:14;3.40;;;3.00;;
15082;SDS011;7640;53.116;6.878;2023-05-20T09:18:43;3.87;;;3.10;;
15082;SDS011;7640;53.116;6.878;2023-05-20T09:21:12;4.33;;;2.97;;
15082;SDS011;7640;53.116;6.878;2023-05-20T09:23:44;3.60;;;2.90;;
15082;SDS011;7640;53.116;6.878;2023-05-20T09:26:16;3.70;;;2.80;;
15082;SDS011;7640;53.116;6.878;2023-05-20T09:28:45;4.57;;;3.03;;
15082;SDS011;7640;53.116;6.878;2023-05-20T09:31:14;3.07;;;2.70;;
15082;SDS011;7640;53.116;6.878;2023-05-20T09:33:43;6.40;;;3.33;;
15082;SDS011;7640;53.116;6.878;2023-05-20T09:36:12;6.63;;;3.20;;
15082;SDS011;7640;53.116;6.878;2023-05-20T09:38:42;3.53;;;2.77;;
15082;SDS011;7640;53.116;6.878;2023-05-20T09:41:12;4.07;;;3.10;;
15082;SDS011;7640;53.116;6.878;2023-05-20T09:43:43;8.87;;;2.90;;
15082;SDS011;7640;53.116;6.878;2023-05-20T09:46:12;3.90;;;3.07;;
15082;SDS011;7640;53.116;6.878;2023-05-20T09:48:42;4.77;;;3.13;;
15082;SDS011;7640;53.116;6.878;2023-05-20T09:51:11;3.63;;;3.20;;
15082;SDS011;7640;53.116;6.878;2023-05-20T09:53:41;5.83;;;3.27;;
15082;SDS011;7640;53.116;6.878;2023-05-20T09:56:09;6.10;;;3.13;;
15082;SDS011;7640;53.116;6.878;2023-05-20T09:58:38;5.97;;;3.27;;
15082;SDS011;7640;53.116;6.878;2023-05-20T10:01:09;5.20;;;3.22;;
15082;SDS011;7640;53.116;6.878;2023-05-20T10:03:40;4.43;;;3.40;;
15082;SDS011;7640;53.116;6.878;2023-05-20T10:06:17;4.37;;;3.20;;
15082;SDS011;7640;53.116;6.878;2023-05-20T10:09:11;5.73;;;3.33;;
15082;SDS011;7640;53.116;6.878;2023-05-20T10:11:55;5.38;;;3.30;;
15082;SDS011;7640;53.116;6.878;2023-05-20T10:14:38;2.87;;;2.63;;
15082;SDS011;7640;53.116;6.878;2023-05-20T10:17:17;3.47;;;2.95;;
15082;SDS011;7640;53.116;6.878;2023-05-20T10:19:59;3.88;;;3.15;;
15082;SDS011;7640;53.116;6.878;2023-05-20T10:22:32;5.28;;;3.20;;
15082;SDS011;7640;53.116;6.878;2023-05-20T10:25:03;3.95;;;3.00;;
15082;SDS011;7640;53.116;6.878;2023-05-20T10:27:43;3.83;;;3.38;;
15082;SDS011;7640;53.116;6.878;2023-05-20T10:30:16;4.43;;;3.10;;
15082;SDS011;7640;53.116;6.878;2023-05-20T10:32:51;4.65;;;3.25;;
15082;SDS011;7640;53.116;6.878;2023-05-20T10:35:23;4.00;;;2.95;;
15082;SDS011;7640;53.116;6.878;2023-05-20T10:37:54;4.30;;;2.72;;
15082;SDS011;7640;53.116;6.878;2023-05-20T10:40:37;3.58;;;2.67;;
15082;SDS011;7640;53.116;6.878;2023-05-20T10:43:09;4.13;;;2.78;;
15082;SDS011;7640;53.116;6.878;2023-05-20T10:45:46;4.07;;;2.45;;
15082;SDS011;7640;53.116;6.878;2023-05-20T10:48:19;3.22;;;2.92;;
15082;SDS011;7640;53.116;6.878;2023-05-20T10:50:54;3.78;;;2.75;;
15082;SDS011;7640;53.116;6.878;2023-05-20T10:53:24;3.33;;;2.97;;
15082;SDS011;7640;53.116;6.878;2023-05-20T10:56:00;5.75;;;2.97;;
15082;SDS011;7640;53.116;6.878;2023-05-20T10:58:35;2.53;;;2.22;;
15082;SDS011;7640;53.116;6.878;2023-05-20T11:01:05;3.33;;;2.42;;
15082;SDS011;7640;53.116;6.878;2023-05-20T11:03:34;3.47;;;2.17;;
15082;SDS011;7640;53.116;6.878;2023-05-20T11:06:11;5.43;;;2.35;;
15082;SDS011;7640;53.116;6.878;2023-05-20T11:08:42;2.72;;;2.30;;
15082;SDS011;7640;53.116;6.878;2023-05-20T11:11:11;6.00;;;2.60;;
15082;SDS011;7640;53.116;6.878;2023-05-20T11:13:41;5.32;;;2.63;;
15082;SDS011;7640;53.116;6.878;2023-05-20T11:16:09;6.80;;;2.35;;
15082;SDS011;7640;53.116;6.878;2023-05-20T11:18:38;3.20;;;2.40;;
15082;SDS011;7640;53.116;6.878;2023-05-20T11:21:06;3.33;;;2.30;;
15082;SDS011;7640;53.116;6.878;2023-05-20T11:23:36;3.08;;;2.20;;
15082;SDS011;7640;53.116;6.878;2023-05-20T11:26:06;3.63;;;2.40;;
15082;SDS011;7640;53.116;6.878;2023-05-20T11:28:34;3.67;;;2.70;;
15082;SDS011;7640;53.116;6.878;2023-05-20T11:31:03;2.75;;;2.40;;
15082;SDS011;7640;53.116;6.878;2023-05-20T11:33:32;5.25;;;2.47;;
15082;SDS011;7640;53.116;6.878;2023-05-20T11:36:01;3.70;;;2.50;;
15082;SDS011;7640;53.116;6.878;2023-05-20T11:38:40;3.70;;;2.50;;
15082;SDS011;7640;53.116;6.878;2023-05-20T11:41:09;3.80;;;2.38;;
15082;SDS011;7640;53.116;6.878;2023-05-20T11:43:37;3.63;;;2.33;;
15082;SDS011;7640;53.116;6.878;2023-05-20T11:46:08;7.32;;;2.67;;
15082;SDS011;7640;53.116;6.878;2023-05-20T11:48:37;4.50;;;2.70;;
15082;SDS011;7640;53.116;6.878;2023-05-20T11:51:07;4.63;;;2.70;;
15082;SDS011;7640;53.116;6.878;2023-05-20T11:53:39;4.30;;;2.38;;
15082;SDS011;7640;53.116;6.878;2023-05-20T11:56:09;3.40;;;2.47;;
15082;SDS011;7640;53.116;6.878;2023-05-20T11:58:37;2.83;;;2.58;;
15082;SDS011;7640;53.116;6.878;2023-05-20T12:01:06;3.90;;;2.70;;
15082;SDS011;7640;53.116;6.878;2023-05-20T12:03:48;4.88;;;2.35;;
15082;SDS011;7640;53.116;6.878;2023-05-20T12:06:16;4.40;;;2.85;;
15082;SDS011;7640;53.116;6.878;2023-05-20T12:08:46;3.35;;;2.70;;
15082;SDS011;7640;53.116;6.878;2023-05-20T12:11:15;3.00;;;2.45;;
15082;SDS011;7640;53.116;6.878;2023-05-20T12:13:43;2.90;;;2.63;;
15082;SDS011;7640;53.116;6.878;2023-05-20T12:16:12;4.32;;;2.45;;
15082;SDS011;7640;53.116;6.878;2023-05-20T12:18:40;2.88;;;2.50;;
15082;SDS011;7640;53.116;6.878;2023-05-20T12:21:09;5.22;;;2.90;;
15082;SDS011;7640;53.116;6.878;2023-05-20T12:23:37;4.13;;;2.30;;
15082;SDS011;7640;53.116;6.878;2023-05-20T12:26:07;3.05;;;2.40;;
15082;SDS011;7640;53.116;6.878;2023-05-20T12:28:36;4.00;;;2.67;;
15082;SDS011;7640;53.116;6.878;2023-05-20T12:31:05;4.43;;;2.35;;
15082;SDS011;7640;53.116;6.878;2023-05-20T12:33:34;3.13;;;2.40;;
15082;SDS011;7640;53.116;6.878;2023-05-20T12:36:03;3.10;;;2.13;;
15082;SDS011;7640;53.116;6.878;2023-05-20T12:38:33;4.18;;;2.25;;
15082;SDS011;7640;53.116;6.878;2023-05-20T12:41:01;2.50;;;2.20;;
15082;SDS011;7640;53.116;6.878;2023-05-20T12:43:31;4.72;;;2.60;;
15082;SDS011;7640;53.116;6.878;2023-05-20T12:46:02;2.65;;;2.30;;
15082;SDS011;7640;53.116;6.878;2023-05-20T12:48:31;3.22;;;2.45;;
15082;SDS011;7640;53.116;6.878;2023-05-20T12:51:02;4.15;;;2.50;;
15082;SDS011;7640;53.116;6.878;2023-05-20T12:53:31;3.00;;;2.50;;
15082;SDS011;7640;53.116;6.878;2023-05-20T12:56:00;3.60;;;2.40;;
15082;SDS011;7640;53.116;6.878;2023-05-20T12:58:28;4.53;;;2.78;;
15082;SDS011;7640;53.116;6.878;2023-05-20T13:00:58;4.95;;;2.95;;
15082;SDS011;7640;53.116;6.878;2023-05-20T13:03:26;3.42;;;2.58;;
15082;SDS011;7640;53.116;6.878;2023-05-20T13:05:55;6.40;;;2.63;;
15082;SDS011;7640;53.116;6.878;2023-05-20T13:08:24;2.80;;;2.33;;
15082;SDS011;7640;53.116;6.878;2023-05-20T13:10:54;5.35;;;2.75;;
15082;SDS011;7640;53.116;6.878;2023-05-20T13:13:22;4.55;;;2.65;;
15082;SDS011;7640;53.116;6.878;2023-05-20T13:15:51;4.68;;;2.60;;
15082;SDS011;7640;53.116;6.878;2023-05-20T13:18:21;4.05;;;2.30;;
15082;SDS011;7640;53.116;6.878;2023-05-20T13:20:49;5.40;;;2.22;;
15082;SDS011;7640;53.116;6.878;2023-05-20T13:23:18;3.15;;;2.28;;
15082;SDS011;7640;53.116;6.878;2023-05-20T13:25:46;3.92;;;2.15;;
15082;SDS011;7640;53.116;6.878;2023-05-20T13:28:14;4.78;;;2.70;;
15082;SDS011;7640;53.116;6.878;2023-05-20T13:30:46;5.88;;;2.40;;
15082;SDS011;7640;53.116;6.878;2023-05-20T13:33:14;4.75;;;2.35;;
15082;SDS011;7640;53.116;6.878;2023-05-20T13:35:44;2.88;;;1.95;;
15082;SDS011;7640;53.116;6.878;2023-05-20T13:38:12;2.42;;;2.20;;
15082;SDS011;7640;53.116;6.878;2023-05-20T13:40:41;2.75;;;2.25;;
15082;SDS011;7640;53.116;6.878;2023-05-20T13:43:09;4.43;;;2.60;;
15082;SDS011;7640;53.116;6.878;2023-05-20T13:45:38;3.42;;;2.50;;
15082;SDS011;7640;53.116;6.878;2023-05-20T13:48:06;3.85;;;2.50;;
15082;SDS011;7640;53.116;6.878;2023-05-20T13:50:35;4.60;;;2.20;;
15082;SDS011;7640;53.116;6.878;2023-05-20T13:53:05;3.80;;;2.33;;
15082;SDS011;7640;53.116;6.878;2023-05-20T13:55:38;3.72;;;2.17;;
15082;SDS011;7640;53.116;6.878;2023-05-20T13:58:07;4.10;;;2.58;;
15082;SDS011;7640;53.116;6.878;2023-05-20T14:00:35;3.13;;;2.10;;
15082;SDS011;7640;53.116;6.878;2023-05-20T14:03:04;2.55;;;2.30;;
15082;SDS011;7640;53.116;6.878;2023-05-20T14:05:34;4.15;;;2.33;;
15082;SDS011;7640;53.116;6.878;2023-05-20T14:08:04;3.35;;;2.10;;
15082;SDS011;7640;53.116;6.878;2023-05-20T14:10:33;2.50;;;2.30;;
15082;SDS011;7640;53.116;6.878;2023-05-20T14:13:02;3.55;;;2.10;;
15082;SDS011;7640;53.116;6.878;2023-05-20T14:15:33;4.13;;;2.25;;
15082;SDS011;7640;53.116;6.878;2023-05-20T14:18:02;5.18;;;2.65;;
15082;SDS011;7640;53.116;6.878;2023-05-20T14:20:31;5.82;;;2.60;;
15082;SDS011;7640;53.116;6.878;2023-05-20T14:22:59;3.38;;;2.50;;
15082;SDS011;7640;53.116;6.878;2023-05-20T14:25:29;3.75;;;2.40;;
15082;SDS011;7640;53.116;6.878;2023-05-20T14:27:57;5.28;;;2.38;;
15082;SDS011;7640;53.116;6.878;2023-05-20T14:30:26;4.95;;;2.08;;
15082;SDS011;7640;53.116;6.878;2023-05-20T14:32:54;5.03;;;2.40;;
15082;SDS011;7640;53.116;6.878;2023-05-20T14:35:23;3.95;;;2.10;;
15082;SDS011;7640;53.116;6.878;2023-05-20T14:37:51;3.92;;;2.20;;
15082;SDS011;7640;53.116;6.878;2023-05-20T14:40:19;2.53;;;2.20;;
15082;SDS011;7640;53.116;6.878;2023-05-20T14:42:50;2.88;;;2.10;;
15082;SDS011;7640;53.116;6.878;2023-05-20T14:45:18;3.05;;;2.28;;
15082;SDS011;7640;53.116;6.878;2023-05-20T14:47:47;3.03;;;2.00;;
15082;SDS011;7640;53.116;6.878;2023-05-20T14:50:15;3.97;;;2.67;;
15082;SDS011;7640;53.116;6.878;2023-05-20T14:52:44;3.95;;;2.30;;
15082;SDS011;7640;53.116;6.878;2023-05-20T14:55:12;3.20;;;2.42;;
15082;SDS011;7640;53.116;6.878;2023-05-20T14:57:41;5.70;;;2.33;;
15082;SDS011;7640;53.116;6.878;2023-05-20T15:00:11;4.95;;;1.92;;
15082;SDS011;7640;53.116;6.878;2023-05-20T15:02:40;3.17;;;2.30;;
15082;SDS011;7640;53.116;6.878;2023-05-20T15:05:10;4.22;;;2.10;;
15082;SDS011;7640;53.116;6.878;2023-05-20T15:07:39;4.82;;;1.88;;
15082;SDS011;7640;53.116;6.878;2023-05-20T15:10:08;2.30;;;2.10;;
15082;SDS011;7640;53.116;6.878;2023-05-20T15:12:37;3.67;;;2.00;;
15082;SDS011;7640;53.116;6.878;2023-05-20T15:15:07;3.78;;;2.10;;